Time;durP1;ratioP1;P1;durP2;ratioP2;P2;SDS_P1;SDS_P2;PMS_P1;PMS_P2;Temp;Humidity;BMP_temperature;BMP_pressure;BME280_temperature;BME280_humidity;BME280_pressure;Samples;Min_cycle;Max_cycle;Signal;HPM_P1;HPM_P2
2021/12/19 00:00:56;;;;;;;24.42;14.13;;;;;;;3.91;92.82;101244.41;5060934;28;20024;-66
2021/12/19 00:08:50;;;;;;;26.75;14.00;;;;;;;4.07;92.60;101234.78;5057402;28;20114;-67
2021/12/19 00:11:26;;;;;;;29.60;14.98;;;;;;;4.04;92.99;101232.28;5057577;28;20099;-66
2021/12/19 00:13:53;;;;;;;27.05;14.10;;;;;;;3.97;93.74;101231.69;5052238;28;20163;-66
2021/12/19 00:16:19;;;;;;;23.25;13.98;;;;;;;4.01;93.64;101241.25;5068029;28;20111;-66
2021/12/19 00:18:46;;;;;;;27.50;14.80;;;;;;;3.96;93.50;101211.41;5059764;28;20491;-66
2021/12/19 00:21:15;;;;;;;29.23;14.93;;;;;;;3.95;93.93;101220.31;5057576;28;20025;-66
2021/12/19 00:23:42;;;;;;;23.75;14.55;;;;;;;3.91;94.48;101216.06;5055920;28;20109;-67
2021/12/19 00:26:08;;;;;;;25.00;13.88;;;;;;;3.94;94.45;101217.72;5071713;28;20033;-66
2021/12/19 00:28:34;;;;;;;22.83;13.48;;;;;;;3.93;94.54;101215.97;5060315;28;20675;-66
2021/12/19 00:31:00;;;;;;;30.38;15.68;;;;;;;3.89;94.50;101195.81;5057510;28;20021;-66
2021/12/19 00:33:26;;;;;;;31.52;14.50;;;;;;;3.87;94.81;101197.72;5065273;28;20429;-66
2021/12/19 00:35:52;;;;;;;25.25;14.30;;;;;;;3.90;94.69;101193.09;5069368;28;20040;-66
2021/12/19 00:38:17;;;;;;;31.98;16.52;;;;;;;4.01;94.46;101204.09;5064746;28;20075;-66
2021/12/19 00:40:44;;;;;;;28.10;15.27;;;;;;;4.00;94.50;101198.88;5058982;28;20479;-66
2021/12/19 00:43:22;;;;;;;30.77;14.95;;;;;;;3.97;94.48;101191.03;5059358;28;20056;-66
2021/12/19 00:45:49;;;;;;;26.15;14.65;;;;;;;3.91;94.57;101188.66;5064780;28;20538;-66
2021/12/19 00:48:16;;;;;;;30.10;15.25;;;;;;;3.95;94.54;101184.94;5069956;28;20024;-66
2021/12/19 00:50:42;;;;;;;29.38;16.25;;;;;;;3.88;95.10;101179.06;5050084;28;20032;-66
2021/12/19 00:53:07;;;;;;;28.92;15.50;;;;;;;3.85;95.38;101176.56;5060686;28;20028;-66
2021/12/19 00:55:33;;;;;;;26.13;15.35;;;;;;;3.91;95.25;101181.59;5053694;28;20369;-66
2021/12/19 00:57:59;;;;;;;26.63;14.50;;;;;;;3.84;95.01;101158.06;5062216;28;20044;-66
2021/12/19 01:00:30;;;;;;;28.13;15.77;;;;;;;3.85;95.71;101162.41;5060524;28;20040;-66
2021/12/19 01:02:59;;;;;;;29.92;16.00;;;;;;;3.78;95.44;101156.53;5055075;28;20181;-66
2021/12/19 01:05:27;;;;;;;29.15;15.60;;;;;;;3.83;95.73;101156.31;5058068;28;20100;-66
2021/12/19 01:07:53;;;;;;;33.88;17.70;;;;;;;3.72;96.22;101145.34;5069691;28;20097;-66
2021/12/19 01:10:19;;;;;;;34.60;16.10;;;;;;;3.70;96.51;101152.50;5055886;28;20062;-66
2021/12/19 01:12:45;;;;;;;29.70;16.30;;;;;;;3.70;96.08;101153.38;5059858;28;20045;-66
2021/12/19 01:15:14;;;;;;;29.55;16.05;;;;;;;3.70;96.16;101152.50;5058292;28;20135;-66
2021/12/19 01:17:40;;;;;;;36.47;17.42;;;;;;;3.68;96.53;101149.09;5048577;28;20036;-66
2021/12/19 01:20:09;;;;;;;28.98;16.90;;;;;;;3.55;96.41;101126.72;5060643;28;21559;-67
2021/12/19 01:22:35;;;;;;;29.17;16.50;;;;;;;3.70;96.25;101148.06;5063928;28;20028;-66
2021/12/19 01:25:00;;;;;;;32.15;17.25;;;;;;;3.56;96.68;101134.59;5058043;28;20502;-66
2021/12/19 01:27:26;;;;;;;35.35;18.70;;;;;;;3.60;96.58;101143.25;5005376;28;1597834;-66
2021/12/19 01:29:51;;;;;;;28.50;16.58;;;;;;;3.51;97.19;101125.16;5067352;28;20095;-66
2021/12/19 01:32:17;;;;;;;31.35;18.05;;;;;;;3.47;97.53;101124.41;5065250;28;20192;-66
2021/12/19 01:34:42;;;;;;;32.25;17.42;;;;;;;3.39;97.59;101112.44;5066957;28;20040;-66
2021/12/19 01:37:08;;;;;;;29.08;16.80;;;;;;;3.37;97.83;101106.34;5050830;28;20101;-66
2021/12/19 01:39:33;;;;;;;32.40;17.23;;;;;;;3.40;97.77;101116.81;5060233;28;20384;-66
2021/12/19 01:41:59;;;;;;;29.38;17.08;;;;;;;3.38;97.79;101110.69;5070712;28;20099;-66
2021/12/19 01:44:25;;;;;;;29.73;17.23;;;;;;;3.33;98.26;101115.38;5070448;28;20036;-66
2021/12/19 01:46:52;;;;;;;34.28;16.58;;;;;;;3.32;98.47;101106.53;5065083;28;20043;-65
2021/12/19 01:49:20;;;;;;;27.20;17.17;;;;;;;3.39;98.18;101097.38;5061145;28;20052;-66
2021/12/19 01:51:45;;;;;;;29.58;16.70;;;;;;;3.44;98.14;101097.16;5050159;28;20020;-66
2021/12/19 01:54:11;;;;;;;27.98;16.58;;;;;;;3.43;98.54;101092.81;5067921;28;20025;-65
2021/12/19 01:56:38;;;;;;;28.52;16.38;;;;;;;3.40;98.39;101093.81;5052651;28;20456;-66
2021/12/19 01:59:06;;;;;;;31.35;17.27;;;;;;;3.41;98.32;101087.56;5067198;28;20036;-66
2021/12/19 02:01:40;;;;;;;28.48;17.40;;;;;;;3.34;98.74;101080.84;5069884;28;20024;-65
2021/12/19 02:04:06;;;;;;;33.65;17.38;;;;;;;3.44;98.66;101089.22;5063779;28;20025;-66
2021/12/19 02:06:31;;;;;;;29.08;17.48;;;;;;;3.45;98.49;101075.88;5062878;28;20040;-66
2021/12/19 02:09:03;;;;;;;32.67;17.40;;;;;;;3.46;98.61;101066.16;5050346;28;20108;-66
2021/12/19 02:11:28;;;;;;;32.22;17.20;;;;;;;3.44;98.80;101062.69;5065284;28;20049;-66
2021/12/19 02:13:54;;;;;;;27.00;16.00;;;;;;;3.50;99.09;101075.69;5059852;28;20082;-66
2021/12/19 02:16:20;;;;;;;31.65;17.85;;;;;;;3.49;99.48;101063.34;5066902;28;20468;-65
2021/12/19 02:18:46;;;;;;;28.98;17.75;;;;;;;3.62;98.73;101059.19;5062784;28;20060;-66
2021/12/19 02:21:11;;;;;;;31.08;16.58;;;;;;;3.63;98.87;101064.44;5058034;28;20443;-66
2021/12/19 02:23:37;;;;;;;30.83;16.42;;;;;;;3.63;99.13;101066.22;5049742;28;20021;-66
2021/12/19 02:26:02;;;;;;;29.83;17.00;;;;;;;3.58;98.71;101061.13;5065226;28;20033;-66
2021/12/19 02:28:27;;;;;;;31.27;17.52;;;;;;;3.58;98.84;101060.28;5057634;28;20029;-66
2021/12/19 02:30:53;;;;;;;29.40;16.85;;;;;;;3.59;99.43;101065.50;5054961;28;20024;-66
2021/12/19 02:33:23;;;;;;;35.88;17.55;;;;;;;3.58;99.34;101062.94;5060135;28;20115;-66
2021/12/19 02:36:01;;;;;;;31.92;17.85;;;;;;;3.55;99.03;101045.34;5062327;28;20025;-66
2021/12/19 02:39:10;;;;;;;31.80;17.63;;;;;;;3.58;99.09;101041.72;5048267;28;20068;-66
2021/12/19 02:49:23;;;;;;;29.60;16.60;;;;;;;3.78;98.13;101031.84;5061866;28;20036;-66
2021/12/19 02:51:51;;;;;;;31.13;17.58;;;;;;;3.80;98.13;101019.38;5049270;28;20021;-66
2021/12/19 02:54:17;;;;;;;32.60;17.85;;;;;;;3.81;98.19;101020.25;5049324;28;20369;-66
2021/12/19 02:56:42;;;;;;;33.85;17.15;;;;;;;3.77;98.01;101016.03;5057160;28;20042;-66
2021/12/19 02:59:08;;;;;;;33.72;18.52;;;;;;;3.79;97.92;101016.78;5064927;28;20052;-66
2021/12/19 03:01:33;;;;;;;30.65;17.88;;;;;;;3.64;98.63;101004.28;5047867;28;20032;-66
2021/12/19 03:03:59;;;;;;;32.88;16.65;;;;;;;3.77;98.10;101008.06;5059996;28;20129;-66
2021/12/19 03:06:24;;;;;;;32.88;19.50;;;;;;;3.82;97.89;101012.22;5054144;28;20407;-66
2021/12/19 03:08:51;;;;;;;31.40;17.20;;;;;;;3.86;97.43;101012.91;5049143;28;20037;-67
2021/12/19 03:12:27;;;;;;;31.83;18.38;;;;;;;3.72;97.92;101010.06;5054951;28;20024;-66
2021/12/19 03:19:41;;;;;;;33.10;17.52;;;;;;;3.73;98.67;100966.69;5059209;28;20063;-66
2021/12/19 03:22:07;;;;;;;31.02;16.08;;;;;;;3.73;98.89;100991.44;5056960;28;20033;-66
2021/12/19 03:24:32;;;;;;;30.73;17.88;;;;;;;3.79;98.41;100966.38;5050453;28;20460;-66
2021/12/19 03:26:58;;;;;;;34.72;18.95;;;;;;;3.81;98.43;100953.91;5047746;28;20056;-66
2021/12/19 03:29:23;;;;;;;32.90;18.27;;;;;;;3.79;98.59;100958.44;5055631;28;20103;-66
2021/12/19 03:31:48;;;;;;;34.63;18.30;;;;;;;3.73;98.95;100950.78;5065689;28;20041;-66
2021/12/19 03:34:14;;;;;;;31.80;17.67;;;;;;;3.68;98.76;100936.91;5048799;28;20033;-66
2021/12/19 03:36:39;;;;;;;38.08;18.90;;;;;;;3.63;99.13;100926.50;5048464;28;20032;-66
2021/12/19 03:39:14;;;;;;;31.17;17.60;;;;;;;3.62;99.21;100930.09;5048897;28;20063;-65
2021/12/19 03:41:41;;;;;;;32.03;17.33;;;;;;;3.65;99.20;100931.75;5048629;28;20112;-66
2021/12/19 03:44:06;;;;;;;31.23;17.65;;;;;;;3.65;99.22;100937.03;5048953;28;20042;-66
2021/12/19 03:46:32;;;;;;;31.77;18.15;;;;;;;3.69;98.54;100947.44;5048687;28;20095;-66
2021/12/19 03:48:58;;;;;;;33.13;18.20;;;;;;;3.73;98.74;100945.47;5060683;28;20025;-65
2021/12/19 03:51:24;;;;;;;32.80;17.80;;;;;;;3.68;98.42;100942.19;5052236;28;20017;-66
2021/12/19 03:53:49;;;;;;;33.65;17.65;;;;;;;3.68;98.73;100945.69;5065251;28;20024;-65
2021/12/19 03:56:15;;;;;;;31.88;17.13;;;;;;;3.64;98.72;100932.69;5055132;28;20039;-66
2021/12/19 03:58:41;;;;;;;34.83;19.48;;;;;;;3.65;98.70;100940.53;5050516;28;20037;-66
2021/12/19 04:01:08;;;;;;;33.55;18.00;;;;;;;3.56;98.64;100917.16;5048262;28;20045;-66
2021/12/19 04:03:34;;;;;;;33.33;18.58;;;;;;;3.45;98.81;100919.47;5046429;28;20036;-66
2021/12/19 04:06:00;;;;;;;28.88;17.20;;;;;;;3.56;99.58;100942.78;5048356;28;20495;-65
2021/12/19 04:08:26;;;;;;;32.08;17.42;;;;;;;3.54;99.60;100926.97;5050984;28;20033;-66
2021/12/19 04:10:53;;;;;;;40.25;19.10;;;;;;;3.55;99.96;100935.78;5049780;28;20032;-66
2021/12/19 04:13:20;;;;;;;32.88;18.65;;;;;;;3.50;100.00;100916.59;5047701;28;20048;-66
2021/12/19 04:15:48;;;;;;;31.95;17.08;;;;;;;3.45;100.00;100914.16;5048213;28;20108;-66
2021/12/19 04:18:13;;;;;;;31.73;18.63;;;;;;;3.46;100.00;100905.28;5050449;28;20031;-66
2021/12/19 04:20:39;;;;;;;31.80;17.88;;;;;;;3.48;100.00;100905.22;5053515;28;20400;-66
2021/12/19 04:23:05;;;;;;;30.48;17.00;;;;;;;3.52;100.00;100918.22;5051318;28;20048;-66
2021/12/19 04:25:30;;;;;;;32.15;17.35;;;;;;;3.54;99.87;100910.19;5054257;28;20024;-66
2021/12/19 04:27:56;;;;;;;33.88;18.45;;;;;;;3.47;100.00;100895.50;5050864;28;20072;-66
2021/12/19 04:30:25;;;;;;;31.50;17.15;;;;;;;3.39;100.00;100889.75;5053290;28;20028;-66
2021/12/19 04:33:01;;;;;;;36.17;19.00;;;;;;;3.40;100.00;100904.72;5052901;28;20491;-66
2021/12/19 04:35:32;;;;;;;31.75;17.08;;;;;;;3.42;100.00;100900.22;5050689;28;20103;-66
2021/12/19 04:40:56;;;;;;;33.53;18.13;;;;;;;3.49;100.00;100910.44;5050498;28;20028;-66
2021/12/19 04:52:10;;;;;;;33.25;18.23;;;;;;;3.74;100.00;100916.22;5050144;28;20075;-66
2021/12/19 05:00:14;;;;;;;30.15;17.08;;;;;;;3.87;100.00;100924.44;5054566;28;20036;-66
2021/12/19 05:02:27;;;;;;;35.72;18.25;;;;;;;3.83;100.00;100914.88;5049621;28;20126;-66
2021/12/19 05:15:33;;;;;;;33.10;18.13;;;;;;;3.94;100.00;100872.75;5049537;28;20043;-65
2021/12/19 05:18:05;;;;;;;36.92;18.90;;;;;;;3.95;100.00;100866.50;5054412;28;20707;-66
2021/12/19 05:20:32;;;;;;;34.45;18.10;;;;;;;3.97;100.00;100870.78;5050854;28;20040;-66
2021/12/19 05:23:05;;;;;;;31.95;17.73;;;;;;;3.99;100.00;100863.63;5049464;28;20040;-66
2021/12/19 05:25:31;;;;;;;32.08;17.70;;;;;;;4.02;100.00;100855.50;5051910;28;20037;-66
2021/12/19 05:27:57;;;;;;;32.92;18.20;;;;;;;4.06;100.00;100853.53;5054775;28;20369;-66
2021/12/19 05:30:23;;;;;;;31.92;17.75;;;;;;;4.09;100.00;100853.34;5047821;28;20025;-66
2021/12/19 05:32:52;;;;;;;29.00;17.25;;;;;;;4.19;100.00;100854.59;5049239;28;20033;-65
2021/12/19 05:35:28;;;;;;;32.08;18.45;;;;;;;4.21;100.00;100855.38;5053358;28;20230;-66
2021/12/19 05:46:23;;;;;;;33.97;17.83;;;;;;;4.42;100.00;100809.94;5056008;28;20043;-66
2021/12/19 05:48:49;;;;;;;32.80;17.73;;;;;;;4.39;100.00;100798.63;5065321;28;20024;-65
2021/12/19 05:51:14;;;;;;;35.85;19.13;;;;;;;4.42;100.00;100804.63;5049507;28;20033;-65
2021/12/19 05:53:40;;;;;;;32.63;17.80;;;;;;;4.52;100.00;100799.69;5054309;28;20068;-66
2021/12/19 05:56:05;;;;;;;30.17;16.80;;;;;;;4.56;100.00;100803.88;5052517;28;20114;-66
2021/12/19 05:58:31;;;;;;;30.40;17.58;;;;;;;4.49;100.00;100789.22;5050223;28;20020;-66
2021/12/19 06:00:57;;;;;;;29.77;17.63;;;;;;;4.61;99.99;100807.13;5066466;28;20024;-66
2021/12/19 06:03:22;;;;;;;32.83;18.13;;;;;;;4.62;100.00;100811.50;5056878;28;20031;-66
2021/12/19 06:05:48;;;;;;;34.80;17.85;;;;;;;4.63;100.00;100807.91;5051834;28;20055;-66
2021/12/19 06:08:13;;;;;;;31.55;17.75;;;;;;;4.59;99.63;100791.25;5066616;28;20119;-66
2021/12/19 06:10:39;;;;;;;33.42;18.85;;;;;;;4.75;99.17;100804.56;5049762;28;20041;-66
2021/12/19 06:13:04;;;;;;;29.77;17.40;;;;;;;4.82;98.26;100791.78;5048125;28;20032;-65
2021/12/19 06:15:30;;;;;;;31.58;17.00;;;;;;;4.78;98.67;100799.06;5056187;28;20025;-65
2021/12/19 06:17:55;;;;;;;32.65;18.98;;;;;;;4.74;98.33;100794.84;5051455;28;20035;-66
2021/12/19 06:20:21;;;;;;;29.00;17.00;;;;;;;4.86;97.93;100798.66;5052614;28;20033;-66
2021/12/19 06:22:47;;;;;;;30.95;18.35;;;;;;;4.86;97.59;100794.16;5051079;28;20113;-66
2021/12/19 06:25:13;;;;;;;30.17;17.55;;;;;;;4.85;97.29;100776.53;5050206;28;20033;-66
2021/12/19 06:27:39;;;;;;;29.60;17.27;;;;;;;4.73;97.73;100753.31;5048096;28;20083;-66
2021/12/19 06:30:06;;;;;;;32.47;19.08;;;;;;;4.81;97.13;100760.84;5050994;28;20060;-66
2021/12/19 06:32:32;;;;;;;31.83;19.42;;;;;;;4.84;96.59;100764.19;5061458;28;20081;-65
2021/12/19 06:34:59;;;;;;;31.00;18.48;;;;;;;4.88;95.91;100768.38;5069560;28;20041;-65
2021/12/19 06:37:25;;;;;;;29.95;17.88;;;;;;;4.90;95.51;100773.59;5069050;28;20039;-66
2021/12/19 06:39:50;;;;;;;28.75;16.55;;;;;;;4.86;95.66;100762.28;5066591;28;20025;-65
2021/12/19 06:42:16;;;;;;;28.00;16.88;;;;;;;4.87;95.36;100765.81;5059926;28;20021;-66
2021/12/19 06:44:41;;;;;;;28.52;16.48;;;;;;;4.85;95.31;100765.91;5068022;28;20016;-66
2021/12/19 06:47:07;;;;;;;30.55;17.35;;;;;;;4.88;94.93;100772.81;5056670;28;20481;-67
2021/12/19 06:49:32;;;;;;;27.58;16.98;;;;;;;4.82;94.61;100755.44;5049730;28;20029;-66
2021/12/19 06:51:58;;;;;;;28.33;17.73;;;;;;;4.85;94.76;100755.25;5051347;28;20033;-66
2021/12/19 06:54:23;;;;;;;30.35;17.35;;;;;;;4.88;94.24;100746.25;5053341;28;20029;-65
2021/12/19 06:56:49;;;;;;;30.27;17.88;;;;;;;4.84;94.52;100739.41;5052924;28;20028;-66
2021/12/19 06:59:14;;;;;;;28.83;17.15;;;;;;;4.84;94.20;100737.63;5056189;28;20772;-65
2021/12/19 07:01:40;;;;;;;28.98;17.88;;;;;;;4.92;94.08;100739.81;5054212;28;20040;-65
2021/12/19 07:04:06;;;;;;;28.30;16.55;;;;;;;4.86;93.72;100733.06;5048833;28;20039;-66
2021/12/19 07:06:32;;;;;;;29.13;16.63;;;;;;;4.82;94.46;100726.22;5060654;28;20039;-66
2021/12/19 07:08:58;;;;;;;29.85;17.67;;;;;;;4.89;94.56;100727.56;5064335;28;20037;-66
2021/12/19 07:11:23;;;;;;;28.98;17.15;;;;;;;4.90;94.77;100725.78;5053928;28;20703;-66
2021/12/19 07:13:49;;;;;;;24.25;16.10;;;;;;;4.96;94.74;100730.72;5058834;28;20029;-65
2021/12/19 07:16:15;;;;;;;28.67;16.65;;;;;;;4.89;95.23;100732.88;5052982;28;20125;-65
2021/12/19 07:18:40;;;;;;;28.60;17.35;;;;;;;4.95;95.42;100731.66;5058210;28;20032;-65
2021/12/19 07:21:07;;;;;;;24.00;15.30;;;;;;;4.99;95.62;100718.09;5048351;28;20093;-65
2021/12/19 07:23:34;;;;;;;25.52;16.17;;;;;;;5.07;95.73;100718.53;5063159;28;20032;-65
2021/12/19 07:26:00;;;;;;;28.45;16.58;;;;;;;5.16;95.38;100723.28;5061159;28;20045;-66
2021/12/19 07:28:25;;;;;;;24.73;15.60;;;;;;;5.07;95.93;100721.19;5054624;28;20101;-66
2021/12/19 07:30:51;;;;;;;27.55;15.73;;;;;;;5.08;96.27;100714.91;5052869;28;20055;-66
2021/12/19 07:33:18;;;;;;;23.98;15.18;;;;;;;5.03;96.51;100718.78;5053471;28;20028;-66
2021/12/19 07:35:47;;;;;;;26.98;16.80;;;;;;;5.08;96.60;100704.28;5062168;28;20032;-66
2021/12/19 07:38:18;;;;;;;24.95;14.90;;;;;;;5.23;96.24;100713.16;5059808;28;20040;-66
2021/12/19 07:40:46;;;;;;;22.30;15.30;;;;;;;5.21;96.58;100704.38;5058332;28;20544;-66
2021/12/19 07:43:13;;;;;;;23.63;14.52;;;;;;;5.38;95.93;100710.41;5049986;28;20074;-66
2021/12/19 07:45:39;;;;;;;24.88;14.70;;;;;;;5.33;95.95;100685.91;5054476;28;20103;-66
2021/12/19 07:48:05;;;;;;;23.10;15.07;;;;;;;5.39;95.89;100692.66;5051687;28;20132;-66
2021/12/19 07:50:31;;;;;;;24.23;15.23;;;;;;;5.47;95.87;100696.56;5058327;28;20114;-66
2021/12/19 07:52:58;;;;;;;20.60;13.63;;;;;;;5.46;95.74;100694.88;5066628;28;20051;-66
2021/12/19 07:55:24;;;;;;;21.23;14.43;;;;;;;5.52;95.47;100694.50;5068424;28;20032;-66
2021/12/19 07:57:50;;;;;;;20.95;14.40;;;;;;;5.61;94.70;100677.09;5069493;28;20033;-66
2021/12/19 08:00:19;;;;;;;20.25;13.73;;;;;;;5.66;94.16;100688.31;5061234;28;20082;-67
2021/12/19 08:02:45;;;;;;;19.60;13.77;;;;;;;5.70;94.46;100687.16;5071098;28;20025;-66
2021/12/19 08:05:12;;;;;;;18.65;13.50;;;;;;;5.68;94.32;100683.75;5068856;28;20024;-66
2021/12/19 08:07:43;;;;;;;20.95;13.65;;;;;;;5.72;93.59;100685.25;5063440;28;20039;-66
2021/12/19 08:12:41;;;;;;;18.90;12.40;;;;;;;5.83;93.80;100670.38;5071404;28;20020;-66
2021/12/19 08:15:09;;;;;;;20.52;13.25;;;;;;;5.89;93.00;100659.34;5068758;28;20127;-66
2021/12/19 08:17:35;;;;;;;19.65;12.85;;;;;;;6.01;92.13;100663.91;5069761;28;20028;-67
2021/12/19 08:20:01;;;;;;;19.75;12.75;;;;;;;5.90;92.24;100645.06;5052998;28;20094;-66
2021/12/19 08:22:29;;;;;;;21.77;12.50;;;;;;;6.01;91.74;100663.03;5064190;28;20124;-67
2021/12/19 08:24:56;;;;;;;21.17;12.27;;;;;;;5.93;92.84;100658.19;5061255;28;20033;-66
2021/12/19 08:27:24;;;;;;;18.33;11.93;;;;;;;6.06;92.03;100659.13;5053586;28;20087;-66
2021/12/19 08:29:49;;;;;;;18.48;11.88;;;;;;;6.12;91.37;100661.41;5068628;28;20078;-66
2021/12/19 08:32:15;;;;;;;15.95;11.27;;;;;;;6.16;91.22;100643.44;5070418;28;20502;-66
2021/12/19 08:34:40;;;;;;;15.85;11.15;;;;;;;6.10;91.68;100639.31;5062795;28;20033;-66
2021/12/19 08:37:07;;;;;;;16.88;11.43;;;;;;;6.33;89.76;100636.06;5056872;28;20119;-66
2021/12/19 08:39:33;;;;;;;17.30;11.80;;;;;;;6.37;88.91;100640.22;5062081;28;20098;-66
2021/12/19 08:42:00;;;;;;;15.27;10.45;;;;;;;6.30;89.12;100628.25;5051110;28;20033;-66
2021/12/19 08:44:26;;;;;;;15.23;10.57;;;;;;;6.29;90.17;100618.53;5058934;28;20035;-66
2021/12/19 08:46:52;;;;;;;13.25;9.40;;;;;;;6.44;89.20;100609.56;5063615;28;20025;-66
2021/12/19 08:49:17;;;;;;;14.75;10.50;;;;;;;6.50;88.41;100608.28;5059961;28;20028;-67
2021/12/19 08:51:44;;;;;;;14.88;9.55;;;;;;;6.50;88.64;100625.13;5064491;28;20131;-66
2021/12/19 08:54:09;;;;;;;15.10;10.18;;;;;;;6.47;88.99;100617.34;5056500;28;20051;-67
2021/12/19 08:56:35;;;;;;;14.15;10.40;;;;;;;6.49;88.36;100606.59;5065513;28;20020;-66
2021/12/19 08:59:02;;;;;;;15.75;10.65;;;;;;;6.61;88.07;100617.28;5067612;28;20029;-66
2021/12/19 09:01:28;;;;;;;15.73;10.63;;;;;;;6.51;88.83;100617.97;5069634;28;20040;-66
2021/12/19 09:03:54;;;;;;;13.15;9.05;;;;;;;6.57;88.48;100607.78;5053287;28;20035;-67
2021/12/19 09:06:19;;;;;;;13.13;9.32;;;;;;;6.61;88.72;100624.44;5062158;28;20029;-66
2021/12/19 09:08:45;;;;;;;14.07;9.48;;;;;;;6.72;87.75;100612.09;5055493;28;20094;-66
2021/12/19 09:11:12;;;;;;;20.27;10.20;;;;;;;6.70;87.41;100607.78;5068572;28;20047;-66
2021/12/19 09:13:38;;;;;;;13.35;9.43;;;;;;;6.71;87.50;100601.53;5047673;28;20103;-66
2021/12/19 09:16:04;;;;;;;13.02;9.70;;;;;;;6.85;86.24;100580.97;5048374;28;20128;-66
2021/12/19 09:18:29;;;;;;;15.13;9.73;;;;;;;6.72;87.55;100579.25;5049613;28;20099;-66
2021/12/19 09:20:55;;;;;;;14.55;9.45;;;;;;;6.75;87.55;100582.53;5060519;28;20040;-66
2021/12/19 09:23:22;;;;;;;14.90;9.70;;;;;;;6.76;88.63;100578.06;5069786;28;20654;-66
2021/12/19 09:25:49;;;;;;;14.95;10.80;;;;;;;6.68;87.99;100575.91;5049272;28;20033;-67
2021/12/19 09:28:15;;;;;;;15.00;10.73;;;;;;;6.69;89.15;100576.78;5051798;28;20110;-66
2021/12/19 09:30:42;;;;;;;18.00;10.90;;;;;;;6.84;87.82;100573.91;5066395;28;20024;-66
2021/12/19 09:33:08;;;;;;;14.60;9.60;;;;;;;6.94;86.68;100563.50;5046738;28;20396;-66
2021/12/19 09:35:34;;;;;;;14.50;10.23;;;;;;;6.89;87.01;100560.28;5047019;28;20032;-66
2021/12/19 09:38:02;;;;;;;14.60;9.90;;;;;;;6.87;87.15;100554.22;5060758;28;20494;-66
2021/12/19 09:40:34;;;;;;;16.65;10.55;;;;;;;6.93;86.87;100561.75;5060805;28;20409;-66
2021/12/19 09:43:04;;;;;;;13.93;10.57;;;;;;;6.81;88.34;100568.78;5056839;28;20504;-66
2021/12/19 09:45:31;;;;;;;15.43;9.88;;;;;;;6.76;88.21;100570.06;5048618;28;20053;-65
2021/12/19 09:47:58;;;;;;;15.38;10.15;;;;;;;6.83;87.51;100555.34;5053905;28;20551;-66
2021/12/19 09:50:24;;;;;;;14.07;10.10;;;;;;;6.82;87.76;100561.66;5066531;28;20042;-66
2021/12/19 09:52:50;;;;;;;16.88;10.55;;;;;;;7.00;86.92;100560.41;5057591;28;20495;-67
2021/12/19 09:55:19;;;;;;;15.13;10.63;;;;;;;6.97;86.91;100536.63;5069050;28;20029;-66
2021/12/19 09:57:46;;;;;;;14.77;9.52;;;;;;;7.00;87.07;100526.56;5066580;28;20040;-66
2021/12/19 10:00:12;;;;;;;14.80;9.48;;;;;;;6.89;87.23;100521.16;5064756;28;20017;-66
2021/12/19 10:02:37;;;;;;;15.32;9.88;;;;;;;6.86;87.82;100517.84;5047251;28;20458;-66
2021/12/19 10:05:25;;;;;;;14.20;9.13;;;;;;;7.03;86.86;100516.66;5064025;28;20032;-66
2021/12/19 10:07:58;;;;;;;13.98;9.35;;;;;;;6.99;87.51;100510.69;5059404;28;20120;-65
2021/12/19 10:11:03;;;;;;;13.63;8.88;;;;;;;6.99;87.56;100508.00;5068416;28;20533;-66
2021/12/19 10:13:37;;;;;;;14.68;9.40;;;;;;;6.98;86.64;100495.66;5062838;28;20190;-66
2021/12/19 10:16:26;;;;;;;13.35;8.93;;;;;;;7.04;87.36;100501.38;5058599;28;20028;-66
2021/12/19 10:18:54;;;;;;;16.33;9.63;;;;;;;7.05;87.31;100496.94;5057662;28;20025;-66
2021/12/19 10:21:20;;;;;;;13.25;9.27;;;;;;;7.16;86.39;100496.19;5058855;28;20507;-71
2021/12/19 10:23:45;;;;;;;13.95;9.50;;;;;;;7.21;85.91;100488.69;5061593;28;20051;-71
2021/12/19 10:26:12;;;;;;;15.25;9.60;;;;;;;7.27;85.43;100480.25;5063818;28;20710;-71
2021/12/19 10:28:55;;;;;;;16.00;9.90;;;;;;;7.23;85.47;100484.97;5062414;28;20024;-71
2021/12/19 10:31:21;;;;;;;13.52;9.30;;;;;;;7.16;85.63;100478.34;5057677;28;20040;-71
2021/12/19 10:33:48;;;;;;;14.18;9.68;;;;;;;7.13;85.97;100464.38;5063654;28;20106;-71
2021/12/19 10:36:14;;;;;;;13.63;8.90;;;;;;;7.12;86.63;100460.03;5064221;28;20036;-71
2021/12/19 10:38:46;;;;;;;16.98;10.65;;;;;;;7.12;86.90;100468.84;5062930;28;20035;-71
2021/12/19 10:41:25;;;;;;;14.48;9.05;;;;;;;7.26;85.77;100457.22;5061655;28;20024;-71
2021/12/19 10:44:03;;;;;;;16.02;9.38;;;;;;;7.17;86.49;100463.19;5058483;28;20043;-72
2021/12/19 10:46:34;;;;;;;19.63;11.32;;;;;;;7.32;85.75;100456.78;5059487;28;20064;-72
2021/12/19 10:49:01;;;;;;;17.35;10.18;;;;;;;7.25;87.23;100445.69;5063070;28;20431;-71
2021/12/19 10:51:30;;;;;;;14.55;10.00;;;;;;;7.21;87.63;100438.00;5061693;28;20020;-72
2021/12/19 10:54:00;;;;;;;15.15;10.18;;;;;;;7.20;87.18;100442.50;5061411;28;20480;-72
2021/12/19 10:56:31;;;;;;;16.83;9.95;;;;;;;7.25;86.39;100424.34;5059388;28;20021;-72
2021/12/19 10:59:08;;;;;;;29.05;15.95;;;;;;;7.25;86.81;100412.84;5055792;28;20024;-71
2021/12/19 11:01:44;;;;;;;16.50;9.93;;;;;;;7.41;85.76;100418.75;5059792;28;20032;-72
2021/12/19 11:04:12;;;;;;;14.00;9.95;;;;;;;7.49;83.66;100403.03;5060451;28;20023;-72
2021/12/19 11:06:53;;;;;;;16.92;9.82;;;;;;;7.60;83.01;100406.59;5063220;28;20104;-72
2021/12/19 11:09:20;;;;;;;13.50;9.13;;;;;;;7.50;82.89;100391.38;5059694;28;20040;-72
2021/12/19 11:12:12;;;;;;;16.08;10.02;;;;;;;7.55;82.27;100392.75;5060730;28;20112;-72
2021/12/19 11:14:43;;;;;;;16.42;9.38;;;;;;;7.55;82.18;100405.25;5056861;28;20072;-72
2021/12/19 11:17:15;;;;;;;14.98;8.93;;;;;;;7.53;81.69;100397.34;5062173;28;20039;-72
2021/12/19 11:19:41;;;;;;;16.10;10.45;;;;;;;7.53;82.20;100399.16;5058587;28;20084;-71
2021/12/19 11:22:08;;;;;;;14.25;9.65;;;;;;;7.54;81.15;100384.88;5056218;28;20436;-71
2021/12/19 11:27:09;;;;;;;14.32;8.90;;;;;;;7.55;81.45;100392.75;4926423;26;20056;-72
2021/12/19 11:29:36;;;;;;;15.15;9.73;;;;;;;7.46;82.48;100397.91;5014422;28;20029;-72
2021/12/19 11:32:06;;;;;;;14.75;9.40;;;;;;;7.49;81.42;100379.00;5032955;28;20033;-72
2021/12/19 11:34:43;;;;;;;15.25;9.98;;;;;;;7.42;82.32;100388.44;5032939;28;20025;-71
2021/12/19 11:37:18;;;;;;;12.93;8.77;;;;;;;7.49;81.96;100373.66;5033064;28;20674;-72
2021/12/19 11:39:50;;;;;;;16.25;9.25;;;;;;;7.57;81.57;100377.47;5033167;28;20037;-72
2021/12/19 11:42:18;;;;;;;14.32;9.10;;;;;;;7.41;82.36;100370.72;5031817;28;20025;-71
2021/12/19 11:45:11;;;;;;;14.00;10.07;;;;;;;7.47;82.22;100376.44;5031735;28;20079;-72
2021/12/19 11:47:54;;;;;;;14.50;8.95;;;;;;;7.44;82.78;100378.47;5032167;28;20477;-72
2021/12/19 11:50:51;;;;;;;13.00;8.93;;;;;;;7.46;82.14;100381.91;5032845;28;20041;-72
2021/12/19 11:53:17;;;;;;;17.73;9.70;;;;;;;7.43;83.09;100374.97;5010456;28;20045;-72
2021/12/19 11:55:45;;;;;;;14.52;9.30;;;;;;;7.38;83.65;100373.63;5032708;28;20079;-72
2021/12/19 11:58:17;;;;;;;15.15;9.60;;;;;;;7.38;83.06;100374.47;5032772;28;20105;-71
2021/12/19 12:00:55;;;;;;;13.10;8.35;;;;;;;7.44;82.61;100370.47;5033043;28;20658;-72
2021/12/19 12:03:23;;;;;;;14.88;9.30;;;;;;;7.38;83.25;100363.78;5032670;28;20026;-72
2021/12/19 12:06:13;;;;;;;13.40;8.68;;;;;;;7.54;81.92;100368.84;5033007;28;20025;-72
2021/12/19 12:08:38;;;;;;;13.48;8.77;;;;;;;7.52;82.03;100358.28;5013771;28;20049;-72
2021/12/19 12:11:04;;;;;;;14.38;8.82;;;;;;;7.47;82.72;100360.44;5015757;28;20110;-75
2021/12/19 12:13:34;;;;;;;12.13;8.00;;;;;;;7.50;82.50;100351.34;5580671;22;20012;-75
2021/12/19 12:16:35;;;;;;;15.20;8.70;;;;;;;7.48;82.78;100362.13;5027388;28;20117;-76
2021/12/19 12:19:04;;;;;;;13.77;8.70;;;;;;;7.54;82.45;100358.19;5003871;28;20034;-76
2021/12/19 12:21:40;;;;;;;13.20;9.07;;;;;;;7.42;81.45;100332.41;5010370;28;20026;-76